sensor_id;sensor_type;location;lat;lon;timestamp;P1;durP1;ratioP1;P2;durP2;ratioP2
11151;SDS011;5630;49.342;10.802;2023-02-27T00:00:04;4.73;;;2.20;;
11151;SDS011;5630;49.342;10.802;2023-02-27T00:02:38;4.60;;;2.28;;
11151;SDS011;5630;49.342;10.802;2023-02-27T00:05:06;3.97;;;2.58;;
11151;SDS011;5630;49.342;10.802;2023-02-27T00:07:31;3.70;;;2.08;;
11151;SDS011;5630;49.342;10.802;2023-02-27T00:09:57;2.87;;;2.50;;
11151;SDS011;5630;49.342;10.802;2023-02-27T00:12:23;2.63;;;2.07;;
11151;SDS011;5630;49.342;10.802;2023-02-27T00:14:48;5.73;;;2.37;;
11151;SDS011;5630;49.342;10.802;2023-02-27T00:17:15;3.03;;;2.00;;
11151;SDS011;5630;49.342;10.802;2023-02-27T00:19:41;4.43;;;2.30;;
11151;SDS011;5630;49.342;10.802;2023-02-27T00:22:07;3.43;;;2.27;;
11151;SDS011;5630;49.342;10.802;2023-02-27T00:24:32;3.33;;;2.30;;
11151;SDS011;5630;49.342;10.802;2023-02-27T00:26:58;4.70;;;2.17;;
11151;SDS011;5630;49.342;10.802;2023-02-27T00:29:24;2.80;;;1.90;;
11151;SDS011;5630;49.342;10.802;2023-02-27T00:31:49;3.43;;;2.23;;
11151;SDS011;5630;49.342;10.802;2023-02-27T00:34:15;2.87;;;2.17;;
11151;SDS011;5630;49.342;10.802;2023-02-27T00:36:40;3.03;;;2.27;;
11151;SDS011;5630;49.342;10.802;2023-02-27T00:39:06;4.17;;;2.10;;
11151;SDS011;5630;49.342;10.802;2023-02-27T00:41:31;3.43;;;2.40;;
11151;SDS011;5630;49.342;10.802;2023-02-27T00:43:57;5.17;;;2.10;;
11151;SDS011;5630;49.342;10.802;2023-02-27T00:46:23;3.13;;;2.23;;
11151;SDS011;5630;49.342;10.802;2023-02-27T00:48:48;5.57;;;2.40;;
11151;SDS011;5630;49.342;10.802;2023-02-27T00:51:14;4.87;;;1.93;;
11151;SDS011;5630;49.342;10.802;2023-02-27T00:53:39;3.63;;;2.20;;
11151;SDS011;5630;49.342;10.802;2023-02-27T00:56:05;3.27;;;2.20;;
11151;SDS011;5630;49.342;10.802;2023-02-27T00:58:31;3.22;;;2.38;;
11151;SDS011;5630;49.342;10.802;2023-02-27T01:01:00;4.50;;;2.13;;
11151;SDS011;5630;49.342;10.802;2023-02-27T01:03:25;5.38;;;2.50;;
11151;SDS011;5630;49.342;10.802;2023-02-27T01:05:51;4.07;;;2.40;;
11151;SDS011;5630;49.342;10.802;2023-02-27T01:08:16;3.20;;;2.17;;
11151;SDS011;5630;49.342;10.802;2023-02-27T01:10:42;3.27;;;2.30;;
11151;SDS011;5630;49.342;10.802;2023-02-27T01:13:08;4.70;;;2.17;;
11151;SDS011;5630;49.342;10.802;2023-02-27T01:15:33;4.33;;;2.10;;
11151;SDS011;5630;49.342;10.802;2023-02-27T01:17:59;4.53;;;2.43;;
11151;SDS011;5630;49.342;10.802;2023-02-27T01:20:25;5.13;;;2.30;;
11151;SDS011;5630;49.342;10.802;2023-02-27T01:22:50;4.57;;;2.10;;
11151;SDS011;5630;49.342;10.802;2023-02-27T01:25:16;3.70;;;2.03;;
11151;SDS011;5630;49.342;10.802;2023-02-27T01:27:42;3.40;;;2.10;;
11151;SDS011;5630;49.342;10.802;2023-02-27T01:30:08;4.30;;;2.03;;
11151;SDS011;5630;49.342;10.802;2023-02-27T01:32:35;2.63;;;2.08;;
11151;SDS011;5630;49.342;10.802;2023-02-27T01:35:01;3.10;;;2.00;;
11151;SDS011;5630;49.342;10.802;2023-02-27T01:37:26;4.90;;;2.23;;
11151;SDS011;5630;49.342;10.802;2023-02-27T01:39:52;4.13;;;2.40;;
11151;SDS011;5630;49.342;10.802;2023-02-27T01:42:19;4.60;;;2.33;;
11151;SDS011;5630;49.342;10.802;2023-02-27T01:45:25;2.88;;;2.30;;
11151;SDS011;5630;49.342;10.802;2023-02-27T01:47:44;3.97;;;2.40;;
11151;SDS011;5630;49.342;10.802;2023-02-27T01:50:14;4.28;;;2.30;;
11151;SDS011;5630;49.342;10.802;2023-02-27T01:52:40;3.97;;;2.25;;
11151;SDS011;5630;49.342;10.802;2023-02-27T01:55:09;4.80;;;2.30;;
11151;SDS011;5630;49.342;10.802;2023-02-27T01:57:37;4.63;;;2.47;;
11151;SDS011;5630;49.342;10.802;2023-02-27T02:00:05;7.22;;;2.65;;
11151;SDS011;5630;49.342;10.802;2023-02-27T02:02:35;3.97;;;2.50;;
11151;SDS011;5630;49.342;10.802;2023-02-27T02:05:04;4.68;;;2.53;;
11151;SDS011;5630;49.342;10.802;2023-02-27T02:07:31;4.28;;;2.55;;
11151;SDS011;5630;49.342;10.802;2023-02-27T02:09:59;4.90;;;2.30;;
11151;SDS011;5630;49.342;10.802;2023-02-27T02:12:28;4.10;;;2.15;;
11151;SDS011;5630;49.342;10.802;2023-02-27T02:14:57;4.32;;;2.45;;
11151;SDS011;5630;49.342;10.802;2023-02-27T02:29:07;3.65;;;2.20;;
11151;SDS011;5630;49.342;10.802;2023-02-27T02:40:24;3.60;;;2.10;;
11151;SDS011;5630;49.342;10.802;2023-02-27T02:51:04;3.63;;;2.20;;
11151;SDS011;5630;49.342;10.802;2023-02-27T02:53:42;6.50;;;2.00;;
11151;SDS011;5630;49.342;10.802;2023-02-27T02:56:22;3.53;;;2.50;;
11151;SDS011;5630;49.342;10.802;2023-02-27T02:58:55;4.47;;;2.20;;
11151;SDS011;5630;49.342;10.802;2023-02-27T03:01:25;4.38;;;2.05;;
11151;SDS011;5630;49.342;10.802;2023-02-27T03:06:29;5.63;;;2.50;;
11151;SDS011;5630;49.342;10.802;2023-02-27T03:08:59;7.38;;;2.53;;
11151;SDS011;5630;49.342;10.802;2023-02-27T03:11:32;5.15;;;2.20;;
11151;SDS011;5630;49.342;10.802;2023-02-27T03:14:05;5.82;;;2.30;;
11151;SDS011;5630;49.342;10.802;2023-02-27T03:16:40;4.38;;;2.22;;
11151;SDS011;5630;49.342;10.802;2023-02-27T03:19:20;4.05;;;2.30;;
11151;SDS011;5630;49.342;10.802;2023-02-27T03:24:27;4.53;;;2.15;;
11151;SDS011;5630;49.342;10.802;2023-02-27T03:27:12;3.75;;;2.25;;
11151;SDS011;5630;49.342;10.802;2023-02-27T03:32:23;5.28;;;2.42;;
11151;SDS011;5630;49.342;10.802;2023-02-27T03:34:57;4.13;;;2.38;;
11151;SDS011;5630;49.342;10.802;2023-02-27T03:37:26;4.97;;;2.55;;
11151;SDS011;5630;49.342;10.802;2023-02-27T03:46:16;3.90;;;2.50;;
11151;SDS011;5630;49.342;10.802;2023-02-27T03:48:45;3.53;;;2.00;;
11151;SDS011;5630;49.342;10.802;2023-02-27T03:51:11;5.05;;;2.50;;
11151;SDS011;5630;49.342;10.802;2023-02-27T03:56:13;5.30;;;2.45;;
11151;SDS011;5630;49.342;10.802;2023-02-27T03:58:42;4.93;;;2.40;;
11151;SDS011;5630;49.342;10.802;2023-02-27T04:01:08;5.77;;;2.53;;
11151;SDS011;5630;49.342;10.802;2023-02-27T04:03:34;4.73;;;2.40;;
11151;SDS011;5630;49.342;10.802;2023-02-27T04:06:05;5.43;;;2.30;;
11151;SDS011;5630;49.342;10.802;2023-02-27T04:14:07;4.83;;;2.30;;
11151;SDS011;5630;49.342;10.802;2023-02-27T04:22:38;3.95;;;2.40;;
11151;SDS011;5630;49.342;10.802;2023-02-27T04:35:52;5.47;;;2.55;;
11151;SDS011;5630;49.342;10.802;2023-02-27T04:38:28;4.40;;;2.38;;
11151;SDS011;5630;49.342;10.802;2023-02-27T04:41:01;3.55;;;2.53;;
11151;SDS011;5630;49.342;10.802;2023-02-27T04:43:36;4.13;;;2.35;;
11151;SDS011;5630;49.342;10.802;2023-02-27T04:46:04;4.93;;;2.60;;
11151;SDS011;5630;49.342;10.802;2023-02-27T04:48:39;4.82;;;2.28;;
11151;SDS011;5630;49.342;10.802;2023-02-27T04:51:30;6.22;;;2.90;;
11151;SDS011;5630;49.342;10.802;2023-02-27T04:54:01;4.75;;;2.85;;
11151;SDS011;5630;49.342;10.802;2023-02-27T04:56:45;4.95;;;3.08;;
11151;SDS011;5630;49.342;10.802;2023-02-27T04:59:18;6.28;;;2.70;;
11151;SDS011;5630;49.342;10.802;2023-02-27T05:01:56;4.15;;;2.90;;
11151;SDS011;5630;49.342;10.802;2023-02-27T05:04:35;4.75;;;3.10;;
11151;SDS011;5630;49.342;10.802;2023-02-27T05:07:05;3.67;;;2.78;;
11151;SDS011;5630;49.342;10.802;2023-02-27T05:12:24;4.57;;;2.90;;
11151;SDS011;5630;49.342;10.802;2023-02-27T05:15:12;6.05;;;3.08;;
11151;SDS011;5630;49.342;10.802;2023-02-27T05:17:48;6.05;;;2.67;;
11151;SDS011;5630;49.342;10.802;2023-02-27T05:20:30;9.35;;;3.00;;
11151;SDS011;5630;49.342;10.802;2023-02-27T05:23:13;4.22;;;2.70;;
11151;SDS011;5630;49.342;10.802;2023-02-27T05:25:52;5.47;;;3.10;;
11151;SDS011;5630;49.342;10.802;2023-02-27T05:28:34;3.97;;;3.05;;
11151;SDS011;5630;49.342;10.802;2023-02-27T05:31:16;3.67;;;2.80;;
11151;SDS011;5630;49.342;10.802;2023-02-27T05:34:03;4.50;;;3.00;;
11151;SDS011;5630;49.342;10.802;2023-02-27T05:36:35;4.82;;;3.22;;
11151;SDS011;5630;49.342;10.802;2023-02-27T05:39:15;4.03;;;2.92;;
11151;SDS011;5630;49.342;10.802;2023-02-27T05:41:47;6.47;;;3.60;;
11151;SDS011;5630;49.342;10.802;2023-02-27T05:44:19;5.45;;;3.45;;
11151;SDS011;5630;49.342;10.802;2023-02-27T05:46:55;6.03;;;3.80;;
11151;SDS011;5630;49.342;10.802;2023-02-27T05:51:53;5.10;;;3.70;;
11151;SDS011;5630;49.342;10.802;2023-02-27T05:54:22;5.18;;;4.10;;
11151;SDS011;5630;49.342;10.802;2023-02-27T05:56:57;5.68;;;3.65;;
11151;SDS011;5630;49.342;10.802;2023-02-27T05:59:28;8.27;;;4.70;;
11151;SDS011;5630;49.342;10.802;2023-02-27T06:02:02;6.90;;;3.85;;
11151;SDS011;5630;49.342;10.802;2023-02-27T06:04:29;4.95;;;3.90;;
11151;SDS011;5630;49.342;10.802;2023-02-27T06:06:54;5.67;;;4.00;;
11151;SDS011;5630;49.342;10.802;2023-02-27T06:09:21;5.18;;;3.70;;
11151;SDS011;5630;49.342;10.802;2023-02-27T06:11:47;5.03;;;3.33;;
11151;SDS011;5630;49.342;10.802;2023-02-27T06:14:13;13.87;;;5.07;;
11151;SDS011;5630;49.342;10.802;2023-02-27T06:16:38;10.30;;;6.07;;
11151;SDS011;5630;49.342;10.802;2023-02-27T06:19:04;7.20;;;4.97;;
11151;SDS011;5630;49.342;10.802;2023-02-27T06:21:30;5.70;;;4.00;;
11151;SDS011;5630;49.342;10.802;2023-02-27T06:23:56;5.40;;;3.47;;
11151;SDS011;5630;49.342;10.802;2023-02-27T06:26:22;6.73;;;3.43;;
11151;SDS011;5630;49.342;10.802;2023-02-27T06:28:48;8.40;;;3.20;;
11151;SDS011;5630;49.342;10.802;2023-02-27T06:31:13;5.43;;;3.13;;
11151;SDS011;5630;49.342;10.802;2023-02-27T06:33:39;7.73;;;3.57;;
11151;SDS011;5630;49.342;10.802;2023-02-27T06:36:05;4.17;;;3.37;;
11151;SDS011;5630;49.342;10.802;2023-02-27T06:38:30;6.47;;;3.20;;
11151;SDS011;5630;49.342;10.802;2023-02-27T06:40:56;5.73;;;3.70;;
11151;SDS011;5630;49.342;10.802;2023-02-27T06:43:22;7.17;;;3.50;;
11151;SDS011;5630;49.342;10.802;2023-02-27T06:45:48;6.53;;;3.60;;
11151;SDS011;5630;49.342;10.802;2023-02-27T06:48:16;6.20;;;3.85;;
11151;SDS011;5630;49.342;10.802;2023-02-27T06:50:42;4.93;;;3.67;;
11151;SDS011;5630;49.342;10.802;2023-02-27T06:53:08;4.93;;;3.60;;
11151;SDS011;5630;49.342;10.802;2023-02-27T06:55:33;6.40;;;3.73;;
11151;SDS011;5630;49.342;10.802;2023-02-27T06:57:59;11.07;;;4.07;;
11151;SDS011;5630;49.342;10.802;2023-02-27T07:00:24;4.40;;;3.50;;
11151;SDS011;5630;49.342;10.802;2023-02-27T07:02:50;6.10;;;3.60;;
11151;SDS011;5630;49.342;10.802;2023-02-27T07:05:16;8.17;;;4.93;;
11151;SDS011;5630;49.342;10.802;2023-02-27T07:07:42;9.27;;;5.32;;
11151;SDS011;5630;49.342;10.802;2023-02-27T07:10:09;8.53;;;6.23;;
11151;SDS011;5630;49.342;10.802;2023-02-27T07:12:36;7.15;;;5.20;;
11151;SDS011;5630;49.342;10.802;2023-02-27T07:15:03;6.85;;;4.85;;
11151;SDS011;5630;49.342;10.802;2023-02-27T07:17:29;6.80;;;4.82;;
11151;SDS011;5630;49.342;10.802;2023-02-27T07:19:55;5.75;;;3.63;;
11151;SDS011;5630;49.342;10.802;2023-02-27T07:22:21;4.97;;;3.35;;
11151;SDS011;5630;49.342;10.802;2023-02-27T07:24:47;5.37;;;3.57;;
11151;SDS011;5630;49.342;10.802;2023-02-27T07:27:13;5.63;;;3.30;;
11151;SDS011;5630;49.342;10.802;2023-02-27T07:29:38;7.70;;;3.70;;
11151;SDS011;5630;49.342;10.802;2023-02-27T07:32:04;5.43;;;2.87;;
11151;SDS011;5630;49.342;10.802;2023-02-27T07:34:30;5.18;;;3.40;;
11151;SDS011;5630;49.342;10.802;2023-02-27T07:36:56;5.77;;;3.33;;
11151;SDS011;5630;49.342;10.802;2023-02-27T07:39:21;9.57;;;3.30;;
11151;SDS011;5630;49.342;10.802;2023-02-27T07:41:47;5.78;;;3.45;;
11151;SDS011;5630;49.342;10.802;2023-02-27T07:44:13;5.57;;;3.67;;
11151;SDS011;5630;49.342;10.802;2023-02-27T07:46:39;6.17;;;3.50;;
11151;SDS011;5630;49.342;10.802;2023-02-27T07:49:05;6.60;;;3.50;;
11151;SDS011;5630;49.342;10.802;2023-02-27T07:51:31;7.70;;;4.17;;
11151;SDS011;5630;49.342;10.802;2023-02-27T07:53:57;7.73;;;4.17;;
11151;SDS011;5630;49.342;10.802;2023-02-27T07:56:23;7.25;;;4.05;;
11151;SDS011;5630;49.342;10.802;2023-02-27T07:58:49;6.53;;;3.80;;
11151;SDS011;5630;49.342;10.802;2023-02-27T08:01:15;8.67;;;4.17;;
11151;SDS011;5630;49.342;10.802;2023-02-27T08:03:40;7.87;;;3.93;;
11151;SDS011;5630;49.342;10.802;2023-02-27T08:06:06;5.90;;;3.97;;
11151;SDS011;5630;49.342;10.802;2023-02-27T08:08:32;7.73;;;3.93;;
11151;SDS011;5630;49.342;10.802;2023-02-27T08:10:57;8.07;;;3.97;;
11151;SDS011;5630;49.342;10.802;2023-02-27T08:13:23;5.20;;;3.77;;
11151;SDS011;5630;49.342;10.802;2023-02-27T08:15:48;8.83;;;4.27;;
11151;SDS011;5630;49.342;10.802;2023-02-27T08:18:14;5.97;;;3.63;;
11151;SDS011;5630;49.342;10.802;2023-02-27T08:20:40;7.97;;;3.67;;
11151;SDS011;5630;49.342;10.802;2023-02-27T08:23:05;6.40;;;3.63;;
11151;SDS011;5630;49.342;10.802;2023-02-27T08:25:31;6.10;;;3.63;;
11151;SDS011;5630;49.342;10.802;2023-02-27T08:27:57;8.73;;;4.10;;
11151;SDS011;5630;49.342;10.802;2023-02-27T08:30:22;7.30;;;3.87;;
11151;SDS011;5630;49.342;10.802;2023-02-27T08:32:48;7.23;;;3.70;;
11151;SDS011;5630;49.342;10.802;2023-02-27T08:35:14;11.93;;;3.57;;
11151;SDS011;5630;49.342;10.802;2023-02-27T08:37:39;5.43;;;3.90;;
11151;SDS011;5630;49.342;10.802;2023-02-27T08:40:05;5.27;;;3.20;;
11151;SDS011;5630;49.342;10.802;2023-02-27T08:42:32;11.13;;;3.53;;
11151;SDS011;5630;49.342;10.802;2023-02-27T08:44:58;8.60;;;3.58;;
11151;SDS011;5630;49.342;10.802;2023-02-27T08:47:24;9.20;;;3.20;;
11151;SDS011;5630;49.342;10.802;2023-02-27T08:49:49;5.40;;;3.00;;
11151;SDS011;5630;49.342;10.802;2023-02-27T08:52:15;6.50;;;3.33;;
11151;SDS011;5630;49.342;10.802;2023-02-27T08:54:41;6.23;;;3.50;;
11151;SDS011;5630;49.342;10.802;2023-02-27T08:57:06;7.53;;;3.20;;
11151;SDS011;5630;49.342;10.802;2023-02-27T08:59:32;5.60;;;2.70;;
11151;SDS011;5630;49.342;10.802;2023-02-27T09:01:58;3.20;;;2.27;;
11151;SDS011;5630;49.342;10.802;2023-02-27T09:04:24;7.53;;;2.73;;
11151;SDS011;5630;49.342;10.802;2023-02-27T09:06:50;4.35;;;2.75;;
11151;SDS011;5630;49.342;10.802;2023-02-27T09:09:17;5.78;;;2.42;;
11151;SDS011;5630;49.342;10.802;2023-02-27T09:11:43;5.43;;;2.83;;
11151;SDS011;5630;49.342;10.802;2023-02-27T09:14:10;8.95;;;2.97;;
11151;SDS011;5630;49.342;10.802;2023-02-27T09:16:36;6.35;;;2.72;;
11151;SDS011;5630;49.342;10.802;2023-02-27T09:19:02;6.23;;;2.87;;
11151;SDS011;5630;49.342;10.802;2023-02-27T09:21:28;5.67;;;3.07;;
11151;SDS011;5630;49.342;10.802;2023-02-27T09:23:53;5.70;;;2.70;;
11151;SDS011;5630;49.342;10.802;2023-02-27T09:26:19;7.87;;;3.10;;
11151;SDS011;5630;49.342;10.802;2023-02-27T09:28:45;5.73;;;2.47;;
11151;SDS011;5630;49.342;10.802;2023-02-27T09:31:10;6.73;;;2.97;;
11151;SDS011;5630;49.342;10.802;2023-02-27T09:33:36;10.73;;;2.70;;
11151;SDS011;5630;49.342;10.802;2023-02-27T09:36:03;13.10;;;2.60;;
11151;SDS011;5630;49.342;10.802;2023-02-27T09:38:30;6.47;;;2.50;;
11151;SDS011;5630;49.342;10.802;2023-02-27T09:40:56;4.55;;;2.97;;
11151;SDS011;5630;49.342;10.802;2023-02-27T09:43:45;5.50;;;2.60;;
11151;SDS011;5630;49.342;10.802;2023-02-27T09:46:21;4.40;;;2.30;;
11151;SDS011;5630;49.342;10.802;2023-02-27T09:48:56;5.93;;;2.30;;
11151;SDS011;5630;49.342;10.802;2023-02-27T09:51:24;5.82;;;2.53;;
11151;SDS011;5630;49.342;10.802;2023-02-27T09:53:52;3.65;;;2.35;;
11151;SDS011;5630;49.342;10.802;2023-02-27T09:56:28;4.53;;;2.45;;
11151;SDS011;5630;49.342;10.802;2023-02-27T10:01:51;6.45;;;2.45;;
11151;SDS011;5630;49.342;10.802;2023-02-27T10:09:46;6.57;;;2.47;;
11151;SDS011;5630;49.342;10.802;2023-02-27T10:15:03;3.92;;;2.17;;
11151;SDS011;5630;49.342;10.802;2023-02-27T10:17:38;14.27;;;3.05;;
11151;SDS011;5630;49.342;10.802;2023-02-27T10:20:09;6.90;;;2.47;;
11151;SDS011;5630;49.342;10.802;2023-02-27T10:22:41;5.95;;;2.40;;
11151;SDS011;5630;49.342;10.802;2023-02-27T10:25:12;6.88;;;2.50;;
11151;SDS011;5630;49.342;10.802;2023-02-27T10:27:39;3.30;;;2.25;;
11151;SDS011;5630;49.342;10.802;2023-02-27T10:32:41;4.95;;;2.33;;
11151;SDS011;5630;49.342;10.802;2023-02-27T10:35:11;3.92;;;1.90;;
11151;SDS011;5630;49.342;10.802;2023-02-27T10:37:44;12.77;;;3.20;;
11151;SDS011;5630;49.342;10.802;2023-02-27T10:40:11;4.15;;;2.17;;
11151;SDS011;5630;49.342;10.802;2023-02-27T10:42:38;6.20;;;2.33;;
11151;SDS011;5630;49.342;10.802;2023-02-27T10:45:05;5.93;;;1.85;;
11151;SDS011;5630;49.342;10.802;2023-02-27T10:47:31;6.22;;;2.00;;
11151;SDS011;5630;49.342;10.802;2023-02-27T10:49:56;2.67;;;1.70;;
11151;SDS011;5630;49.342;10.802;2023-02-27T10:52:24;5.80;;;2.00;;
11151;SDS011;5630;49.342;10.802;2023-02-27T10:54:50;4.25;;;1.67;;
11151;SDS011;5630;49.342;10.802;2023-02-27T10:57:27;3.95;;;1.85;;
11151;SDS011;5630;49.342;10.802;2023-02-27T11:00:02;6.38;;;2.05;;
11151;SDS011;5630;49.342;10.802;2023-02-27T11:02:40;3.83;;;1.90;;
11151;SDS011;5630;49.342;10.802;2023-02-27T11:05:26;3.95;;;1.80;;
11151;SDS011;5630;49.342;10.802;2023-02-27T11:07:55;3.90;;;1.92;;
11151;SDS011;5630;49.342;10.802;2023-02-27T11:10:34;5.40;;;1.98;;
11151;SDS011;5630;49.342;10.802;2023-02-27T11:13:03;5.77;;;2.40;;
11151;SDS011;5630;49.342;10.802;2023-02-27T11:15:35;6.38;;;2.20;;
11151;SDS011;5630;49.342;10.802;2023-02-27T11:20:44;4.47;;;2.10;;
11151;SDS011;5630;49.342;10.802;2023-02-27T11:25:44;4.03;;;1.80;;
11151;SDS011;5630;49.342;10.802;2023-02-27T11:28:19;4.17;;;2.33;;
11151;SDS011;5630;49.342;10.802;2023-02-27T11:31:03;12.50;;;2.40;;
11151;SDS011;5630;49.342;10.802;2023-02-27T11:33:38;6.70;;;2.70;;
11151;SDS011;5630;49.342;10.802;2023-02-27T11:36:12;4.10;;;1.80;;
11151;SDS011;5630;49.342;10.802;2023-02-27T11:38:38;3.27;;;1.80;;
11151;SDS011;5630;49.342;10.802;2023-02-27T11:41:04;6.97;;;2.30;;
11151;SDS011;5630;49.342;10.802;2023-02-27T11:43:48;5.97;;;1.87;;
11151;SDS011;5630;49.342;10.802;2023-02-27T11:46:19;3.90;;;1.60;;
11151;SDS011;5630;49.342;10.802;2023-02-27T11:48:55;4.07;;;1.90;;
11151;SDS011;5630;49.342;10.802;2023-02-27T12:02:19;2.90;;;1.60;;
11151;SDS011;5630;49.342;10.802;2023-02-27T12:07:40;6.20;;;1.70;;
11151;SDS011;5630;49.342;10.802;2023-02-27T12:10:21;4.77;;;1.77;;
11151;SDS011;5630;49.342;10.802;2023-02-27T12:13:13;2.90;;;1.90;;
11151;SDS011;5630;49.342;10.802;2023-02-27T12:20:56;3.03;;;1.80;;
11151;SDS011;5630;49.342;10.802;2023-02-27T12:26:14;5.78;;;1.92;;
11151;SDS011;5630;49.342;10.802;2023-02-27T12:28:59;9.73;;;2.13;;
11151;SDS011;5630;49.342;10.802;2023-02-27T12:31:47;4.18;;;1.95;;
11151;SDS011;5630;49.342;10.802;2023-02-27T12:34:19;4.65;;;1.70;;
11151;SDS011;5630;49.342;10.802;2023-02-27T12:37:01;6.43;;;1.77;;
11151;SDS011;5630;49.342;10.802;2023-02-27T12:39:29;5.50;;;1.80;;
11151;SDS011;5630;49.342;10.802;2023-02-27T12:50:02;2.70;;;1.63;;
11151;SDS011;5630;49.342;10.802;2023-02-27T12:55:33;3.50;;;1.52;;
11151;SDS011;5630;49.342;10.802;2023-02-27T13:00:58;2.90;;;1.60;;
11151;SDS011;5630;49.342;10.802;2023-02-27T13:03:27;5.88;;;2.10;;
11151;SDS011;5630;49.342;10.802;2023-02-27T13:06:20;5.05;;;1.70;;
11151;SDS011;5630;49.342;10.802;2023-02-27T13:08:54;3.10;;;1.50;;
11151;SDS011;5630;49.342;10.802;2023-02-27T13:14:29;6.25;;;1.83;;
11151;SDS011;5630;49.342;10.802;2023-02-27T13:25:53;2.40;;;1.55;;
11151;SDS011;5630;49.342;10.802;2023-02-27T13:28:24;3.97;;;1.55;;
11151;SDS011;5630;49.342;10.802;2023-02-27T13:33:54;4.78;;;1.90;;
11151;SDS011;5630;49.342;10.802;2023-02-27T13:36:33;4.10;;;1.70;;
11151;SDS011;5630;49.342;10.802;2023-02-27T13:49:58;2.35;;;1.70;;
11151;SDS011;5630;49.342;10.802;2023-02-27T13:52:29;4.38;;;1.83;;
11151;SDS011;5630;49.342;10.802;2023-02-27T13:55:00;3.17;;;1.40;;
11151;SDS011;5630;49.342;10.802;2023-02-27T13:57:31;2.13;;;1.60;;
11151;SDS011;5630;49.342;10.802;2023-02-27T14:00:03;2.03;;;1.50;;
11151;SDS011;5630;49.342;10.802;2023-02-27T14:05:48;4.40;;;1.60;;
11151;SDS011;5630;49.342;10.802;2023-02-27T14:08:20;3.80;;;2.00;;
11151;SDS011;5630;49.342;10.802;2023-02-27T14:10:55;2.28;;;1.63;;
11151;SDS011;5630;49.342;10.802;2023-02-27T14:19:02;2.05;;;1.58;;
11151;SDS011;5630;49.342;10.802;2023-02-27T14:24:27;5.75;;;1.80;;
11151;SDS011;5630;49.342;10.802;2023-02-27T14:26:57;6.43;;;2.08;;
11151;SDS011;5630;49.342;10.802;2023-02-27T14:29:25;3.58;;;1.70;;
11151;SDS011;5630;49.342;10.802;2023-02-27T14:31:55;3.35;;;1.73;;
11151;SDS011;5630;49.342;10.802;2023-02-27T14:34:24;4.63;;;1.80;;
11151;SDS011;5630;49.342;10.802;2023-02-27T14:36:57;1.93;;;1.53;;
11151;SDS011;5630;49.342;10.802;2023-02-27T14:39:27;2.42;;;1.40;;
11151;SDS011;5630;49.342;10.802;2023-02-27T14:44:44;2.95;;;1.80;;
11151;SDS011;5630;49.342;10.802;2023-02-27T14:47:17;1.83;;;1.38;;
11151;SDS011;5630;49.342;10.802;2023-02-27T14:49:44;1.80;;;1.40;;
11151;SDS011;5630;49.342;10.802;2023-02-27T14:52:21;2.15;;;1.33;;
11151;SDS011;5630;49.342;10.802;2023-02-27T14:54:50;4.40;;;1.85;;
11151;SDS011;5630;49.342;10.802;2023-02-27T14:57:17;2.35;;;1.60;;
11151;SDS011;5630;49.342;10.802;2023-02-27T14:59:51;3.67;;;1.73;;
11151;SDS011;5630;49.342;10.802;2023-02-27T15:02:24;4.57;;;1.50;;
11151;SDS011;5630;49.342;10.802;2023-02-27T15:07:24;3.15;;;1.42;;
11151;SDS011;5630;49.342;10.802;2023-02-27T15:10:00;1.83;;;1.50;;
11151;SDS011;5630;49.342;10.802;2023-02-27T15:12:28;3.92;;;1.85;;
11151;SDS011;5630;49.342;10.802;2023-02-27T15:14:58;1.92;;;1.58;;
11151;SDS011;5630;49.342;10.802;2023-02-27T15:17:26;4.97;;;1.55;;
11151;SDS011;5630;49.342;10.802;2023-02-27T15:20:14;4.38;;;1.60;;
11151;SDS011;5630;49.342;10.802;2023-02-27T15:22:56;1.88;;;1.60;;
11151;SDS011;5630;49.342;10.802;2023-02-27T15:25:30;1.67;;;1.50;;
11151;SDS011;5630;49.342;10.802;2023-02-27T15:28:17;4.20;;;1.80;;
11151;SDS011;5630;49.342;10.802;2023-02-27T15:30:50;4.28;;;1.60;;
11151;SDS011;5630;49.342;10.802;2023-02-27T15:33:17;2.83;;;1.70;;
11151;SDS011;5630;49.342;10.802;2023-02-27T15:35:48;2.33;;;1.70;;
11151;SDS011;5630;49.342;10.802;2023-02-27T15:40:53;3.78;;;1.80;;
11151;SDS011;5630;49.342;10.802;2023-02-27T15:43:21;2.47;;;1.75;;
11151;SDS011;5630;49.342;10.802;2023-02-27T15:45:48;4.30;;;1.90;;
11151;SDS011;5630;49.342;10.802;2023-02-27T15:48:14;1.65;;;1.50;;
11151;SDS011;5630;49.342;10.802;2023-02-27T15:50:43;1.92;;;1.73;;
11151;SDS011;5630;49.342;10.802;2023-02-27T15:53:12;3.58;;;1.60;;
11151;SDS011;5630;49.342;10.802;2023-02-27T15:55:44;3.85;;;1.75;;
11151;SDS011;5630;49.342;10.802;2023-02-27T15:58:33;3.03;;;1.70;;
11151;SDS011;5630;49.342;10.802;2023-02-27T16:01:06;1.95;;;1.75;;
11151;SDS011;5630;49.342;10.802;2023-02-27T16:03:40;2.25;;;1.60;;
11151;SDS011;5630;49.342;10.802;2023-02-27T16:06:09;2.95;;;2.08;;
11151;SDS011;5630;49.342;10.802;2023-02-27T16:11:28;3.80;;;1.95;;
11151;SDS011;5630;49.342;10.802;2023-02-27T16:13:56;2.63;;;2.03;;
11151;SDS011;5630;49.342;10.802;2023-02-27T16:16:24;4.73;;;2.43;;
11151;SDS011;5630;49.342;10.802;2023-02-27T16:18:55;5.40;;;2.78;;
11151;SDS011;5630;49.342;10.802;2023-02-27T16:21:26;5.63;;;2.38;;
11151;SDS011;5630;49.342;10.802;2023-02-27T16:23:56;3.85;;;2.05;;
11151;SDS011;5630;49.342;10.802;2023-02-27T16:26:47;6.15;;;1.90;;
11151;SDS011;5630;49.342;10.802;2023-02-27T16:29:20;2.97;;;1.90;;
11151;SDS011;5630;49.342;10.802;2023-02-27T16:31:50;9.27;;;2.22;;
11151;SDS011;5630;49.342;10.802;2023-02-27T16:37:03;3.33;;;2.25;;
11151;SDS011;5630;49.342;10.802;2023-02-27T16:39:30;2.95;;;2.00;;
11151;SDS011;5630;49.342;10.802;2023-02-27T16:41:57;3.38;;;2.00;;
11151;SDS011;5630;49.342;10.802;2023-02-27T16:44:24;4.43;;;2.05;;
11151;SDS011;5630;49.342;10.802;2023-02-27T16:46:50;2.83;;;2.10;;
11151;SDS011;5630;49.342;10.802;2023-02-27T16:49:18;4.18;;;2.53;;
11151;SDS011;5630;49.342;10.802;2023-02-27T16:51:50;3.22;;;2.65;;
11151;SDS011;5630;49.342;10.802;2023-02-27T16:54:16;3.93;;;2.80;;
11151;SDS011;5630;49.342;10.802;2023-02-27T16:56:42;2.87;;;2.00;;
11151;SDS011;5630;49.342;10.802;2023-02-27T16:59:52;4.05;;;2.05;;
11151;SDS011;5630;49.342;10.802;2023-02-27T17:02:05;4.10;;;2.40;;
11151;SDS011;5630;49.342;10.802;2023-02-27T17:04:34;4.07;;;2.20;;
11151;SDS011;5630;49.342;10.802;2023-02-27T17:07:00;7.17;;;2.33;;
11151;SDS011;5630;49.342;10.802;2023-02-27T17:09:26;4.67;;;2.27;;
11151;SDS011;5630;49.342;10.802;2023-02-27T17:11:53;3.58;;;2.03;;
11151;SDS011;5630;49.342;10.802;2023-02-27T17:14:19;4.50;;;2.95;;
11151;SDS011;5630;49.342;10.802;2023-02-27T17:16:45;3.53;;;2.08;;
11151;SDS011;5630;49.342;10.802;2023-02-27T17:19:11;4.50;;;2.40;;
11151;SDS011;5630;49.342;10.802;2023-02-27T17:21:38;3.90;;;2.30;;
11151;SDS011;5630;49.342;10.802;2023-02-27T17:24:04;4.87;;;3.07;;
11151;SDS011;5630;49.342;10.802;2023-02-27T17:26:30;9.02;;;4.05;;
11151;SDS011;5630;49.342;10.802;2023-02-27T17:28:56;13.55;;;4.78;;
11151;SDS011;5630;49.342;10.802;2023-02-27T17:31:22;11.25;;;5.53;;
11151;SDS011;5630;49.342;10.802;2023-02-27T17:33:49;12.33;;;5.33;;
11151;SDS011;5630;49.342;10.802;2023-02-27T17:36:15;10.75;;;4.72;;
11151;SDS011;5630;49.342;10.802;2023-02-27T17:38:41;6.50;;;3.47;;
11151;SDS011;5630;49.342;10.802;2023-02-27T17:41:09;6.47;;;3.67;;
11151;SDS011;5630;49.342;10.802;2023-02-27T17:43:36;5.93;;;3.47;;
11151;SDS011;5630;49.342;10.802;2023-02-27T17:46:05;5.18;;;3.42;;
11151;SDS011;5630;49.342;10.802;2023-02-27T17:48:31;7.05;;;4.00;;
11151;SDS011;5630;49.342;10.802;2023-02-27T17:51:02;5.50;;;3.40;;
11151;SDS011;5630;49.342;10.802;2023-02-27T17:53:31;5.47;;;3.05;;
11151;SDS011;5630;49.342;10.802;2023-02-27T17:55:58;4.60;;;2.75;;
11151;SDS011;5630;49.342;10.802;2023-02-27T17:58:24;6.17;;;3.20;;
11151;SDS011;5630;49.342;10.802;2023-02-27T18:00:49;6.23;;;3.10;;